sensor_id;sensor_type;location;lat;lon;timestamp;P1;durP1;ratioP1;P2;durP2;ratioP2
81912;SDS011;71377;50.698;7.164;2024-03-08T00:00:09;19.65;;;14.02;;
81912;SDS011;71377;50.698;7.164;2024-03-08T00:02:39;20.77;;;14.35;;
81912;SDS011;71377;50.698;7.164;2024-03-08T00:05:06;20.95;;;13.50;;
81912;SDS011;71377;50.698;7.164;2024-03-08T00:07:35;17.63;;;13.30;;
81912;SDS011;71377;50.698;7.164;2024-03-08T00:10:02;26.30;;;14.30;;
81912;SDS011;71377;50.698;7.164;2024-03-08T00:12:30;18.50;;;13.18;;
81912;SDS011;71377;50.698;7.164;2024-03-08T00:14:56;22.45;;;14.80;;
81912;SDS011;71377;50.698;7.164;2024-03-08T00:17:23;20.25;;;14.18;;
81912;SDS011;71377;50.698;7.164;2024-03-08T00:19:50;18.92;;;13.60;;
81912;SDS011;71377;50.698;7.164;2024-03-08T00:22:17;19.10;;;13.73;;
81912;SDS011;71377;50.698;7.164;2024-03-08T00:24:43;19.00;;;13.57;;
81912;SDS011;71377;50.698;7.164;2024-03-08T00:27:10;18.63;;;13.25;;
81912;SDS011;71377;50.698;7.164;2024-03-08T00:29:37;19.58;;;13.73;;
81912;SDS011;71377;50.698;7.164;2024-03-08T00:32:05;20.27;;;13.50;;
81912;SDS011;71377;50.698;7.164;2024-03-08T00:34:31;21.17;;;14.10;;
81912;SDS011;71377;50.698;7.164;2024-03-08T00:36:58;20.30;;;13.70;;
81912;SDS011;71377;50.698;7.164;2024-03-08T00:39:24;18.83;;;13.00;;
81912;SDS011;71377;50.698;7.164;2024-03-08T00:41:51;21.58;;;14.00;;
81912;SDS011;71377;50.698;7.164;2024-03-08T00:44:18;18.55;;;13.52;;
81912;SDS011;71377;50.698;7.164;2024-03-08T00:46:44;17.85;;;13.05;;
81912;SDS011;71377;50.698;7.164;2024-03-08T00:49:11;18.48;;;13.10;;
81912;SDS011;71377;50.698;7.164;2024-03-08T00:51:38;18.33;;;13.48;;
81912;SDS011;71377;50.698;7.164;2024-03-08T00:54:05;20.20;;;13.48;;
81912;SDS011;71377;50.698;7.164;2024-03-08T00:56:31;19.45;;;13.48;;
81912;SDS011;71377;50.698;7.164;2024-03-08T00:59:00;23.10;;;13.30;;
81912;SDS011;71377;50.698;7.164;2024-03-08T01:01:26;19.17;;;13.20;;
81912;SDS011;71377;50.698;7.164;2024-03-08T01:03:52;21.33;;;13.85;;
81912;SDS011;71377;50.698;7.164;2024-03-08T01:06:19;19.30;;;13.40;;
81912;SDS011;71377;50.698;7.164;2024-03-08T01:08:46;20.60;;;13.63;;
81912;SDS011;71377;50.698;7.164;2024-03-08T01:11:15;19.55;;;12.98;;
81912;SDS011;71377;50.698;7.164;2024-03-08T01:13:41;19.27;;;12.48;;
81912;SDS011;71377;50.698;7.164;2024-03-08T01:16:08;19.63;;;13.80;;
81912;SDS011;71377;50.698;7.164;2024-03-08T01:18:34;19.80;;;13.60;;
81912;SDS011;71377;50.698;7.164;2024-03-08T01:21:01;20.17;;;13.50;;
81912;SDS011;71377;50.698;7.164;2024-03-08T01:23:27;20.17;;;13.85;;
81912;SDS011;71377;50.698;7.164;2024-03-08T01:25:55;20.30;;;13.27;;
81912;SDS011;71377;50.698;7.164;2024-03-08T01:28:25;20.02;;;14.05;;
81912;SDS011;71377;50.698;7.164;2024-03-08T01:30:52;21.15;;;13.43;;
81912;SDS011;71377;50.698;7.164;2024-03-08T01:33:22;22.17;;;13.25;;
81912;SDS011;71377;50.698;7.164;2024-03-08T01:35:51;21.45;;;13.70;;
81912;SDS011;71377;50.698;7.164;2024-03-08T01:38:19;17.45;;;12.65;;
81912;SDS011;71377;50.698;7.164;2024-03-08T01:40:47;23.25;;;13.40;;
81912;SDS011;71377;50.698;7.164;2024-03-08T01:43:26;21.17;;;14.05;;
81912;SDS011;71377;50.698;7.164;2024-03-08T01:46:00;22.67;;;13.77;;
81912;SDS011;71377;50.698;7.164;2024-03-08T01:48:28;19.95;;;14.07;;
81912;SDS011;71377;50.698;7.164;2024-03-08T01:50:56;19.15;;;13.65;;
81912;SDS011;71377;50.698;7.164;2024-03-08T01:53:26;21.92;;;13.77;;
81912;SDS011;71377;50.698;7.164;2024-03-08T01:55:55;20.98;;;13.48;;
81912;SDS011;71377;50.698;7.164;2024-03-08T01:58:24;20.83;;;13.75;;
81912;SDS011;71377;50.698;7.164;2024-03-08T02:00:54;24.02;;;14.25;;
81912;SDS011;71377;50.698;7.164;2024-03-08T02:03:22;21.42;;;14.07;;
81912;SDS011;71377;50.698;7.164;2024-03-08T02:05:49;22.27;;;14.30;;
81912;SDS011;71377;50.698;7.164;2024-03-08T02:08:15;20.08;;;13.60;;
81912;SDS011;71377;50.698;7.164;2024-03-08T02:10:43;21.20;;;14.00;;
81912;SDS011;71377;50.698;7.164;2024-03-08T02:13:11;18.75;;;13.45;;
81912;SDS011;71377;50.698;7.164;2024-03-08T02:15:53;21.63;;;14.85;;
81912;SDS011;71377;50.698;7.164;2024-03-08T02:18:21;20.67;;;13.07;;
81912;SDS011;71377;50.698;7.164;2024-03-08T02:20:58;21.90;;;12.80;;
81912;SDS011;71377;50.698;7.164;2024-03-08T02:23:26;19.00;;;13.00;;
81912;SDS011;71377;50.698;7.164;2024-03-08T02:25:54;20.70;;;13.65;;
81912;SDS011;71377;50.698;7.164;2024-03-08T02:28:22;20.95;;;14.07;;
81912;SDS011;71377;50.698;7.164;2024-03-08T02:30:49;20.52;;;13.40;;
81912;SDS011;71377;50.698;7.164;2024-03-08T02:33:24;22.65;;;13.55;;
81912;SDS011;71377;50.698;7.164;2024-03-08T02:35:51;19.35;;;13.73;;
81912;SDS011;71377;50.698;7.164;2024-03-08T02:38:18;22.98;;;13.15;;
81912;SDS011;71377;50.698;7.164;2024-03-08T02:40:50;21.90;;;13.48;;
81912;SDS011;71377;50.698;7.164;2024-03-08T02:43:19;25.27;;;14.20;;
81912;SDS011;71377;50.698;7.164;2024-03-08T02:45:46;22.77;;;14.35;;
81912;SDS011;71377;50.698;7.164;2024-03-08T02:48:13;22.65;;;14.45;;
81912;SDS011;71377;50.698;7.164;2024-03-08T02:50:40;20.10;;;13.10;;
81912;SDS011;71377;50.698;7.164;2024-03-08T02:53:09;25.33;;;14.23;;
81912;SDS011;71377;50.698;7.164;2024-03-08T02:55:36;19.77;;;13.43;;
81912;SDS011;71377;50.698;7.164;2024-03-08T02:58:03;24.15;;;14.15;;
81912;SDS011;71377;50.698;7.164;2024-03-08T03:00:30;21.55;;;13.95;;
81912;SDS011;71377;50.698;7.164;2024-03-08T03:02:57;19.55;;;13.77;;
81912;SDS011;71377;50.698;7.164;2024-03-08T03:05:23;19.33;;;13.27;;
81912;SDS011;71377;50.698;7.164;2024-03-08T03:07:51;22.30;;;14.25;;
81912;SDS011;71377;50.698;7.164;2024-03-08T03:10:17;20.13;;;13.68;;
81912;SDS011;71377;50.698;7.164;2024-03-08T03:12:45;19.50;;;13.45;;
81912;SDS011;71377;50.698;7.164;2024-03-08T03:15:12;20.05;;;13.27;;
81912;SDS011;71377;50.698;7.164;2024-03-08T03:17:39;22.20;;;14.68;;
81912;SDS011;71377;50.698;7.164;2024-03-08T03:20:07;19.50;;;12.93;;
81912;SDS011;71377;50.698;7.164;2024-03-08T03:22:39;25.42;;;14.30;;
81912;SDS011;71377;50.698;7.164;2024-03-08T03:25:13;23.25;;;13.77;;
81912;SDS011;71377;50.698;7.164;2024-03-08T03:27:40;20.67;;;13.48;;
81912;SDS011;71377;50.698;7.164;2024-03-08T03:30:08;26.40;;;14.40;;
81912;SDS011;71377;50.698;7.164;2024-03-08T03:32:48;24.92;;;13.82;;
81912;SDS011;71377;50.698;7.164;2024-03-08T03:35:16;20.42;;;13.63;;
81912;SDS011;71377;50.698;7.164;2024-03-08T03:37:43;20.20;;;13.13;;
81912;SDS011;71377;50.698;7.164;2024-03-08T03:40:17;23.58;;;13.82;;
81912;SDS011;71377;50.698;7.164;2024-03-08T03:42:45;24.30;;;14.45;;
81912;SDS011;71377;50.698;7.164;2024-03-08T03:45:11;22.70;;;13.40;;
81912;SDS011;71377;50.698;7.164;2024-03-08T03:47:39;21.65;;;13.95;;
81912;SDS011;71377;50.698;7.164;2024-03-08T03:50:08;22.92;;;13.75;;
81912;SDS011;71377;50.698;7.164;2024-03-08T03:52:36;21.38;;;14.48;;
81912;SDS011;71377;50.698;7.164;2024-03-08T03:55:02;22.23;;;13.90;;
81912;SDS011;71377;50.698;7.164;2024-03-08T03:57:30;21.85;;;13.40;;
81912;SDS011;71377;50.698;7.164;2024-03-08T03:59:57;20.67;;;13.80;;
81912;SDS011;71377;50.698;7.164;2024-03-08T04:02:29;23.73;;;13.30;;
81912;SDS011;71377;50.698;7.164;2024-03-08T04:04:56;24.65;;;13.52;;
81912;SDS011;71377;50.698;7.164;2024-03-08T04:07:22;21.33;;;14.35;;
81912;SDS011;71377;50.698;7.164;2024-03-08T04:09:48;22.73;;;13.55;;
81912;SDS011;71377;50.698;7.164;2024-03-08T04:12:15;23.80;;;14.85;;
81912;SDS011;71377;50.698;7.164;2024-03-08T04:14:42;19.85;;;13.52;;
81912;SDS011;71377;50.698;7.164;2024-03-08T04:17:08;22.40;;;14.60;;
81912;SDS011;71377;50.698;7.164;2024-03-08T04:19:35;22.38;;;14.45;;
81912;SDS011;71377;50.698;7.164;2024-03-08T04:22:01;22.42;;;14.13;;
81912;SDS011;71377;50.698;7.164;2024-03-08T04:24:28;22.33;;;14.52;;
81912;SDS011;71377;50.698;7.164;2024-03-08T04:26:54;23.70;;;14.85;;
81912;SDS011;71377;50.698;7.164;2024-03-08T04:29:21;22.33;;;13.52;;
81912;SDS011;71377;50.698;7.164;2024-03-08T04:31:48;22.83;;;14.15;;
81912;SDS011;71377;50.698;7.164;2024-03-08T04:34:14;19.95;;;13.18;;
81912;SDS011;71377;50.698;7.164;2024-03-08T04:36:40;22.88;;;14.50;;
81912;SDS011;71377;50.698;7.164;2024-03-08T04:39:07;22.27;;;13.93;;
81912;SDS011;71377;50.698;7.164;2024-03-08T04:41:38;22.52;;;14.52;;
81912;SDS011;71377;50.698;7.164;2024-03-08T04:44:05;22.08;;;14.23;;
81912;SDS011;71377;50.698;7.164;2024-03-08T04:46:32;20.63;;;14.02;;
81912;SDS011;71377;50.698;7.164;2024-03-08T04:48:58;21.58;;;14.50;;
81912;SDS011;71377;50.698;7.164;2024-03-08T04:51:25;21.85;;;14.70;;
81912;SDS011;71377;50.698;7.164;2024-03-08T04:53:51;25.23;;;13.88;;
81912;SDS011;71377;50.698;7.164;2024-03-08T04:56:18;22.90;;;15.07;;
81912;SDS011;71377;50.698;7.164;2024-03-08T04:58:45;24.67;;;14.75;;
81912;SDS011;71377;50.698;7.164;2024-03-08T05:01:15;22.65;;;15.05;;
81912;SDS011;71377;50.698;7.164;2024-03-08T05:03:42;25.23;;;15.18;;
81912;SDS011;71377;50.698;7.164;2024-03-08T05:06:08;22.40;;;14.43;;
81912;SDS011;71377;50.698;7.164;2024-03-08T05:08:35;22.80;;;14.65;;
81912;SDS011;71377;50.698;7.164;2024-03-08T05:11:01;25.52;;;14.40;;
81912;SDS011;71377;50.698;7.164;2024-03-08T05:13:30;23.67;;;14.27;;
81912;SDS011;71377;50.698;7.164;2024-03-08T05:15:56;22.15;;;14.35;;
81912;SDS011;71377;50.698;7.164;2024-03-08T05:18:26;23.50;;;14.98;;
81912;SDS011;71377;50.698;7.164;2024-03-08T05:20:55;24.80;;;14.50;;
81912;SDS011;71377;50.698;7.164;2024-03-08T05:23:22;26.08;;;14.63;;
81912;SDS011;71377;50.698;7.164;2024-03-08T05:25:48;22.17;;;13.65;;
81912;SDS011;71377;50.698;7.164;2024-03-08T05:28:15;25.27;;;15.13;;
81912;SDS011;71377;50.698;7.164;2024-03-08T05:30:41;22.23;;;14.25;;
81912;SDS011;71377;50.698;7.164;2024-03-08T05:33:07;26.38;;;14.85;;
81912;SDS011;71377;50.698;7.164;2024-03-08T05:35:36;25.10;;;15.13;;
81912;SDS011;71377;50.698;7.164;2024-03-08T05:38:03;23.30;;;14.90;;
81912;SDS011;71377;50.698;7.164;2024-03-08T05:40:29;27.38;;;15.07;;
81912;SDS011;71377;50.698;7.164;2024-03-08T05:42:58;24.20;;;14.45;;
81912;SDS011;71377;50.698;7.164;2024-03-08T05:45:25;22.65;;;14.65;;
81912;SDS011;71377;50.698;7.164;2024-03-08T05:47:52;22.23;;;14.02;;
81912;SDS011;71377;50.698;7.164;2024-03-08T05:50:19;22.70;;;13.95;;
81912;SDS011;71377;50.698;7.164;2024-03-08T05:52:45;26.42;;;15.98;;
81912;SDS011;71377;50.698;7.164;2024-03-08T05:55:13;24.48;;;14.68;;
81912;SDS011;71377;50.698;7.164;2024-03-08T05:57:43;23.95;;;15.93;;
81912;SDS011;71377;50.698;7.164;2024-03-08T06:00:10;27.85;;;16.27;;
81912;SDS011;71377;50.698;7.164;2024-03-08T06:02:42;22.45;;;14.70;;
81912;SDS011;71377;50.698;7.164;2024-03-08T06:05:09;25.13;;;15.40;;
81912;SDS011;71377;50.698;7.164;2024-03-08T06:07:36;24.58;;;15.25;;
81912;SDS011;71377;50.698;7.164;2024-03-08T06:10:09;26.20;;;14.88;;
81912;SDS011;71377;50.698;7.164;2024-03-08T06:12:37;25.92;;;16.00;;
81912;SDS011;71377;50.698;7.164;2024-03-08T06:15:07;25.95;;;15.82;;
81912;SDS011;71377;50.698;7.164;2024-03-08T06:17:35;24.80;;;15.73;;
81912;SDS011;71377;50.698;7.164;2024-03-08T06:20:02;26.17;;;16.02;;
81912;SDS011;71377;50.698;7.164;2024-03-08T06:22:30;22.73;;;14.65;;
81912;SDS011;71377;50.698;7.164;2024-03-08T06:24:56;24.92;;;15.45;;
81912;SDS011;71377;50.698;7.164;2024-03-08T06:27:23;27.40;;;16.05;;
81912;SDS011;71377;50.698;7.164;2024-03-08T06:29:49;25.80;;;15.32;;
81912;SDS011;71377;50.698;7.164;2024-03-08T06:32:16;27.67;;;15.70;;
81912;SDS011;71377;50.698;7.164;2024-03-08T06:34:42;25.58;;;15.30;;
81912;SDS011;71377;50.698;7.164;2024-03-08T06:37:08;26.52;;;15.80;;
81912;SDS011;71377;50.698;7.164;2024-03-08T06:39:35;28.45;;;16.20;;
81912;SDS011;71377;50.698;7.164;2024-03-08T06:42:02;28.90;;;15.15;;
81912;SDS011;71377;50.698;7.164;2024-03-08T06:44:28;26.80;;;15.90;;
81912;SDS011;71377;50.698;7.164;2024-03-08T06:46:55;23.63;;;15.15;;
81912;SDS011;71377;50.698;7.164;2024-03-08T06:49:25;23.83;;;15.05;;
81912;SDS011;71377;50.698;7.164;2024-03-08T06:51:53;23.73;;;15.10;;
81912;SDS011;71377;50.698;7.164;2024-03-08T06:54:19;25.90;;;14.80;;
81912;SDS011;71377;50.698;7.164;2024-03-08T06:56:46;27.60;;;16.33;;
81912;SDS011;71377;50.698;7.164;2024-03-08T06:59:12;21.77;;;13.98;;
81912;SDS011;71377;50.698;7.164;2024-03-08T07:01:39;25.42;;;16.13;;
81912;SDS011;71377;50.698;7.164;2024-03-08T07:04:05;27.05;;;15.73;;
81912;SDS011;71377;50.698;7.164;2024-03-08T07:06:32;26.00;;;16.02;;
81912;SDS011;71377;50.698;7.164;2024-03-08T07:09:00;25.27;;;14.48;;
81912;SDS011;71377;50.698;7.164;2024-03-08T07:11:27;25.63;;;14.98;;
81912;SDS011;71377;50.698;7.164;2024-03-08T07:13:54;26.83;;;16.38;;
81912;SDS011;71377;50.698;7.164;2024-03-08T07:16:20;25.73;;;15.77;;
81912;SDS011;71377;50.698;7.164;2024-03-08T07:18:47;24.80;;;15.80;;
81912;SDS011;71377;50.698;7.164;2024-03-08T07:21:14;25.88;;;16.80;;
81912;SDS011;71377;50.698;7.164;2024-03-08T07:23:40;28.20;;;16.63;;
81912;SDS011;71377;50.698;7.164;2024-03-08T07:26:20;26.67;;;15.55;;
81912;SDS011;71377;50.698;7.164;2024-03-08T07:28:46;25.15;;;15.65;;
81912;SDS011;71377;50.698;7.164;2024-03-08T07:31:13;26.02;;;15.60;;
81912;SDS011;71377;50.698;7.164;2024-03-08T07:33:51;29.77;;;15.57;;
81912;SDS011;71377;50.698;7.164;2024-03-08T07:36:19;29.42;;;15.60;;
81912;SDS011;71377;50.698;7.164;2024-03-08T07:38:45;23.30;;;14.60;;
81912;SDS011;71377;50.698;7.164;2024-03-08T07:41:13;24.40;;;14.90;;
81912;SDS011;71377;50.698;7.164;2024-03-08T07:43:42;28.60;;;15.35;;
81912;SDS011;71377;50.698;7.164;2024-03-08T07:46:11;26.85;;;15.20;;
81912;SDS011;71377;50.698;7.164;2024-03-08T07:48:39;22.60;;;14.63;;
81912;SDS011;71377;50.698;7.164;2024-03-08T07:51:06;22.75;;;14.15;;
81912;SDS011;71377;50.698;7.164;2024-03-08T07:53:35;24.23;;;14.70;;
81912;SDS011;71377;50.698;7.164;2024-03-08T07:56:02;22.90;;;14.55;;
81912;SDS011;71377;50.698;7.164;2024-03-08T07:58:28;23.08;;;15.02;;
81912;SDS011;71377;50.698;7.164;2024-03-08T08:00:55;21.58;;;14.63;;
81912;SDS011;71377;50.698;7.164;2024-03-08T08:03:21;22.63;;;14.15;;
81912;SDS011;71377;50.698;7.164;2024-03-08T08:05:48;24.63;;;14.95;;
81912;SDS011;71377;50.698;7.164;2024-03-08T08:08:15;23.10;;;14.52;;
81912;SDS011;71377;50.698;7.164;2024-03-08T08:10:41;23.08;;;14.80;;
81912;SDS011;71377;50.698;7.164;2024-03-08T08:13:08;24.10;;;14.38;;
81912;SDS011;71377;50.698;7.164;2024-03-08T08:15:34;24.23;;;14.38;;
81912;SDS011;71377;50.698;7.164;2024-03-08T08:18:01;23.75;;;14.48;;
81912;SDS011;71377;50.698;7.164;2024-03-08T08:20:29;23.63;;;14.98;;
81912;SDS011;71377;50.698;7.164;2024-03-08T08:22:55;23.63;;;14.55;;
81912;SDS011;71377;50.698;7.164;2024-03-08T08:25:22;21.85;;;14.20;;
81912;SDS011;71377;50.698;7.164;2024-03-08T08:27:50;22.85;;;14.68;;
81912;SDS011;71377;50.698;7.164;2024-03-08T08:30:17;21.30;;;15.00;;
81912;SDS011;71377;50.698;7.164;2024-03-08T08:32:43;22.25;;;13.88;;
81912;SDS011;71377;50.698;7.164;2024-03-08T08:35:10;20.92;;;13.45;;
81912;SDS011;71377;50.698;7.164;2024-03-08T08:37:39;20.10;;;13.68;;
81912;SDS011;71377;50.698;7.164;2024-03-08T08:40:06;24.77;;;14.45;;
81912;SDS011;71377;50.698;7.164;2024-03-08T08:42:36;21.00;;;14.00;;
81912;SDS011;71377;50.698;7.164;2024-03-08T08:45:06;19.65;;;13.77;;
81912;SDS011;71377;50.698;7.164;2024-03-08T08:47:42;19.30;;;13.07;;
81912;SDS011;71377;50.698;7.164;2024-03-08T08:50:09;21.25;;;13.27;;
81912;SDS011;71377;50.698;7.164;2024-03-08T08:52:38;18.60;;;13.20;;
81912;SDS011;71377;50.698;7.164;2024-03-08T08:55:06;22.00;;;13.65;;
81912;SDS011;71377;50.698;7.164;2024-03-08T08:57:32;21.00;;;14.02;;
81912;SDS011;71377;50.698;7.164;2024-03-08T08:59:59;19.50;;;13.45;;
81912;SDS011;71377;50.698;7.164;2024-03-08T09:02:26;19.63;;;12.93;;
81912;SDS011;71377;50.698;7.164;2024-03-08T09:04:53;21.17;;;13.38;;
81912;SDS011;71377;50.698;7.164;2024-03-08T09:07:20;26.98;;;14.18;;
81912;SDS011;71377;50.698;7.164;2024-03-08T09:09:47;18.77;;;12.60;;
81912;SDS011;71377;50.698;7.164;2024-03-08T09:12:13;17.08;;;12.30;;
81912;SDS011;71377;50.698;7.164;2024-03-08T09:14:40;17.65;;;12.20;;
81912;SDS011;71377;50.698;7.164;2024-03-08T09:17:07;18.90;;;12.65;;
81912;SDS011;71377;50.698;7.164;2024-03-08T09:19:37;17.55;;;12.65;;
81912;SDS011;71377;50.698;7.164;2024-03-08T09:22:04;18.77;;;11.68;;
81912;SDS011;71377;50.698;7.164;2024-03-08T09:24:30;16.88;;;11.77;;
81912;SDS011;71377;50.698;7.164;2024-03-08T09:26:57;17.85;;;11.85;;
81912;SDS011;71377;50.698;7.164;2024-03-08T09:29:26;21.10;;;13.05;;
81912;SDS011;71377;50.698;7.164;2024-03-08T09:31:53;21.10;;;11.10;;
81912;SDS011;71377;50.698;7.164;2024-03-08T09:34:19;20.55;;;12.35;;
81912;SDS011;71377;50.698;7.164;2024-03-08T09:36:54;20.20;;;11.63;;
81912;SDS011;71377;50.698;7.164;2024-03-08T09:39:20;14.68;;;10.48;;
81912;SDS011;71377;50.698;7.164;2024-03-08T09:41:48;14.93;;;10.25;;
81912;SDS011;71377;50.698;7.164;2024-03-08T09:44:15;15.18;;;10.77;;
81912;SDS011;71377;50.698;7.164;2024-03-08T09:46:42;16.10;;;9.82;;
81912;SDS011;71377;50.698;7.164;2024-03-08T09:49:08;15.25;;;10.77;;
81912;SDS011;71377;50.698;7.164;2024-03-08T09:51:37;14.93;;;10.10;;
81912;SDS011;71377;50.698;7.164;2024-03-08T09:54:06;14.32;;;10.18;;
81912;SDS011;71377;50.698;7.164;2024-03-08T09:56:45;14.98;;;10.38;;
81912;SDS011;71377;50.698;7.164;2024-03-08T09:59:13;17.55;;;10.32;;
81912;SDS011;71377;50.698;7.164;2024-03-08T10:01:51;15.75;;;10.70;;
81912;SDS011;71377;50.698;7.164;2024-03-08T10:04:25;13.20;;;9.63;;
81912;SDS011;71377;50.698;7.164;2024-03-08T10:06:54;14.00;;;9.60;;
81912;SDS011;71377;50.698;7.164;2024-03-08T10:09:22;15.77;;;10.60;;
81912;SDS011;71377;50.698;7.164;2024-03-08T10:11:53;14.38;;;10.07;;
81912;SDS011;71377;50.698;7.164;2024-03-08T10:14:21;12.95;;;9.63;;
81912;SDS011;71377;50.698;7.164;2024-03-08T10:16:48;15.23;;;10.07;;
81912;SDS011;71377;50.698;7.164;2024-03-08T10:19:15;14.93;;;9.85;;
81912;SDS011;71377;50.698;7.164;2024-03-08T10:21:51;13.82;;;9.95;;
81912;SDS011;71377;50.698;7.164;2024-03-08T10:24:22;15.10;;;10.65;;
81912;SDS011;71377;50.698;7.164;2024-03-08T10:26:53;13.73;;;10.40;;
81912;SDS011;71377;50.698;7.164;2024-03-08T10:29:20;13.32;;;9.40;;
81912;SDS011;71377;50.698;7.164;2024-03-08T10:31:46;12.85;;;9.63;;
81912;SDS011;71377;50.698;7.164;2024-03-08T10:34:13;13.18;;;9.27;;
81912;SDS011;71377;50.698;7.164;2024-03-08T10:36:39;15.60;;;11.00;;
81912;SDS011;71377;50.698;7.164;2024-03-08T10:39:12;13.43;;;9.20;;
81912;SDS011;71377;50.698;7.164;2024-03-08T10:41:57;13.75;;;9.60;;
81912;SDS011;71377;50.698;7.164;2024-03-08T10:47:01;15.10;;;10.32;;
81912;SDS011;71377;50.698;7.164;2024-03-08T10:49:32;13.32;;;9.85;;
81912;SDS011;71377;50.698;7.164;2024-03-08T10:52:05;14.43;;;9.90;;
81912;SDS011;71377;50.698;7.164;2024-03-08T10:54:34;12.98;;;9.52;;
81912;SDS011;71377;50.698;7.164;2024-03-08T10:57:11;11.98;;;9.23;;
81912;SDS011;71377;50.698;7.164;2024-03-08T10:59:38;14.52;;;10.10;;
81912;SDS011;71377;50.698;7.164;2024-03-08T11:02:05;12.32;;;9.00;;
81912;SDS011;71377;50.698;7.164;2024-03-08T11:04:32;14.50;;;9.95;;
81912;SDS011;71377;50.698;7.164;2024-03-08T11:07:00;15.95;;;10.00;;
81912;SDS011;71377;50.698;7.164;2024-03-08T11:09:36;14.52;;;9.60;;
81912;SDS011;71377;50.698;7.164;2024-03-08T11:14:56;12.27;;;8.75;;
81912;SDS011;71377;50.698;7.164;2024-03-08T11:20:00;12.43;;;8.82;;
81912;SDS011;71377;50.698;7.164;2024-03-08T11:22:29;13.18;;;9.73;;
81912;SDS011;71377;50.698;7.164;2024-03-08T11:25:02;12.90;;;8.68;;
81912;SDS011;71377;50.698;7.164;2024-03-08T11:27:35;14.85;;;9.88;;
81912;SDS011;71377;50.698;7.164;2024-03-08T11:30:03;13.18;;;9.27;;
81912;SDS011;71377;50.698;7.164;2024-03-08T11:32:44;12.90;;;8.70;;
81912;SDS011;71377;50.698;7.164;2024-03-08T11:35:19;13.20;;;8.70;;
81912;SDS011;71377;50.698;7.164;2024-03-08T11:37:47;12.88;;;8.65;;
81912;SDS011;71377;50.698;7.164;2024-03-08T11:40:14;10.65;;;7.75;;
81912;SDS011;71377;50.698;7.164;2024-03-08T11:42:45;11.35;;;8.45;;
81912;SDS011;71377;50.698;7.164;2024-03-08T11:45:18;12.30;;;8.93;;
81912;SDS011;71377;50.698;7.164;2024-03-08T11:47:47;14.60;;;8.35;;
81912;SDS011;71377;50.698;7.164;2024-03-08T11:50:16;11.88;;;8.20;;
81912;SDS011;71377;50.698;7.164;2024-03-08T11:52:45;11.18;;;8.50;;
81912;SDS011;71377;50.698;7.164;2024-03-08T11:55:12;12.00;;;9.05;;
81912;SDS011;71377;50.698;7.164;2024-03-08T11:57:39;13.40;;;9.27;;
81912;SDS011;71377;50.698;7.164;2024-03-08T12:00:06;16.15;;;8.88;;
81912;SDS011;71377;50.698;7.164;2024-03-08T12:02:59;11.57;;;8.70;;
81912;SDS011;71377;50.698;7.164;2024-03-08T12:05:27;10.82;;;8.00;;
81912;SDS011;71377;50.698;7.164;2024-03-08T12:07:57;13.45;;;9.00;;
81912;SDS011;71377;50.698;7.164;2024-03-08T12:10:24;13.77;;;8.32;;
81912;SDS011;71377;50.698;7.164;2024-03-08T12:12:52;11.50;;;8.60;;
81912;SDS011;71377;50.698;7.164;2024-03-08T12:15:20;11.32;;;8.40;;
81912;SDS011;71377;50.698;7.164;2024-03-08T12:17:50;14.25;;;8.25;;
81912;SDS011;71377;50.698;7.164;2024-03-08T12:20:25;12.57;;;7.93;;
81912;SDS011;71377;50.698;7.164;2024-03-08T12:22:53;10.77;;;8.05;;
81912;SDS011;71377;50.698;7.164;2024-03-08T12:25:22;10.88;;;8.35;;
81912;SDS011;71377;50.698;7.164;2024-03-08T12:27:53;12.32;;;8.75;;
81912;SDS011;71377;50.698;7.164;2024-03-08T12:30:23;12.82;;;8.88;;
81912;SDS011;71377;50.698;7.164;2024-03-08T12:32:54;11.23;;;8.32;;
81912;SDS011;71377;50.698;7.164;2024-03-08T12:35:23;11.88;;;8.65;;
81912;SDS011;71377;50.698;7.164;2024-03-08T12:37:55;11.50;;;8.52;;
81912;SDS011;71377;50.698;7.164;2024-03-08T12:40:29;11.82;;;8.35;;
81912;SDS011;71377;50.698;7.164;2024-03-08T12:42:58;13.65;;;8.68;;
81912;SDS011;71377;50.698;7.164;2024-03-08T12:45:25;11.18;;;8.30;;
81912;SDS011;71377;50.698;7.164;2024-03-08T12:47:51;10.80;;;7.75;;
81912;SDS011;71377;50.698;7.164;2024-03-08T12:50:19;10.20;;;7.43;;
81912;SDS011;71377;50.698;7.164;2024-03-08T12:52:50;12.15;;;8.25;;
81912;SDS011;71377;50.698;7.164;2024-03-08T12:55:19;10.82;;;7.75;;
81912;SDS011;71377;50.698;7.164;2024-03-08T12:57:46;11.55;;;8.10;;
81912;SDS011;71377;50.698;7.164;2024-03-08T13:00:15;10.80;;;7.85;;
81912;SDS011;71377;50.698;7.164;2024-03-08T13:02:49;11.45;;;8.32;;
81912;SDS011;71377;50.698;7.164;2024-03-08T13:05:17;11.30;;;7.80;;
81912;SDS011;71377;50.698;7.164;2024-03-08T13:07:43;10.80;;;8.30;;
81912;SDS011;71377;50.698;7.164;2024-03-08T13:10:14;10.35;;;7.75;;
81912;SDS011;71377;50.698;7.164;2024-03-08T13:12:42;10.68;;;8.02;;
81912;SDS011;71377;50.698;7.164;2024-03-08T13:15:09;10.23;;;7.50;;
81912;SDS011;71377;50.698;7.164;2024-03-08T13:17:49;10.50;;;7.65;;
81912;SDS011;71377;50.698;7.164;2024-03-08T13:20:16;10.68;;;8.00;;
81912;SDS011;71377;50.698;7.164;2024-03-08T13:22:55;14.45;;;7.97;;
81912;SDS011;71377;50.698;7.164;2024-03-08T13:25:23;10.98;;;7.10;;
81912;SDS011;71377;50.698;7.164;2024-03-08T13:27:50;10.90;;;8.00;;
81912;SDS011;71377;50.698;7.164;2024-03-08T13:30:17;10.75;;;7.97;;
81912;SDS011;71377;50.698;7.164;2024-03-08T13:32:44;11.27;;;7.50;;
81912;SDS011;71377;50.698;7.164;2024-03-08T13:35:11;12.60;;;7.78;;
81912;SDS011;71377;50.698;7.164;2024-03-08T13:37:42;12.80;;;7.90;;
81912;SDS011;71377;50.698;7.164;2024-03-08T13:40:09;11.48;;;7.82;;
81912;SDS011;71377;50.698;7.164;2024-03-08T13:42:44;13.15;;;8.32;;
81912;SDS011;71377;50.698;7.164;2024-03-08T13:45:11;11.63;;;8.05;;
81912;SDS011;71377;50.698;7.164;2024-03-08T13:47:40;12.52;;;7.97;;
81912;SDS011;71377;50.698;7.164;2024-03-08T13:50:07;10.65;;;7.88;;
81912;SDS011;71377;50.698;7.164;2024-03-08T13:52:39;11.48;;;8.13;;
81912;SDS011;71377;50.698;7.164;2024-03-08T13:55:06;10.77;;;8.02;;
81912;SDS011;71377;50.698;7.164;2024-03-08T13:57:33;11.60;;;7.60;;
81912;SDS011;71377;50.698;7.164;2024-03-08T13:59:59;11.95;;;8.95;;
81912;SDS011;71377;50.698;7.164;2024-03-08T14:02:26;11.75;;;8.00;;
81912;SDS011;71377;50.698;7.164;2024-03-08T14:04:57;13.30;;;8.05;;
81912;SDS011;71377;50.698;7.164;2024-03-08T14:07:25;10.70;;;7.97;;
81912;SDS011;71377;50.698;7.164;2024-03-08T14:09:52;11.45;;;7.85;;
81912;SDS011;71377;50.698;7.164;2024-03-08T14:12:19;13.57;;;7.88;;
81912;SDS011;71377;50.698;7.164;2024-03-08T14:14:47;12.35;;;7.57;;
81912;SDS011;71377;50.698;7.164;2024-03-08T14:17:14;12.10;;;8.25;;
81912;SDS011;71377;50.698;7.164;2024-03-08T14:19:43;11.85;;;7.55;;
81912;SDS011;71377;50.698;7.164;2024-03-08T14:22:10;11.23;;;7.72;;
81912;SDS011;71377;50.698;7.164;2024-03-08T14:24:40;14.15;;;7.93;;
81912;SDS011;71377;50.698;7.164;2024-03-08T14:27:08;10.95;;;7.65;;
81912;SDS011;71377;50.698;7.164;2024-03-08T14:29:35;10.30;;;7.47;;
81912;SDS011;71377;50.698;7.164;2024-03-08T14:32:02;9.43;;;7.63;;
81912;SDS011;71377;50.698;7.164;2024-03-08T14:34:32;10.20;;;7.22;;
81912;SDS011;71377;50.698;7.164;2024-03-08T14:37:00;11.43;;;8.45;;
81912;SDS011;71377;50.698;7.164;2024-03-08T14:39:30;9.68;;;6.97;;